createdAt,value
2018-03-22T00:01:06.316Z,47.16
2018-03-22T00:03:33.731Z,47.00
2018-03-22T00:06:01.158Z,46.69
2018-03-22T00:08:28.600Z,46.76
2018-03-22T00:10:56.031Z,46.76
2018-03-22T00:13:23.424Z,47.79
2018-03-22T00:15:50.846Z,47.87
2018-03-22T00:18:18.282Z,47.37
2018-03-22T00:20:45.705Z,48.10
2018-03-22T00:23:13.184Z,47.61
2018-03-22T00:25:40.609Z,46.62
2018-03-22T00:28:08.199Z,47.12
2018-03-22T00:30:35.652Z,47.02
2018-03-22T00:33:03.097Z,46.69
2018-03-22T00:35:30.526Z,46.80
2018-03-22T00:37:59.092Z,46.81
2018-03-22T00:40:26.729Z,46.29
2018-03-22T00:42:54.516Z,46.68
2018-03-22T00:45:21.999Z,46.49
2018-03-22T00:47:49.800Z,46.48
2018-03-22T00:50:17.309Z,46.37
2018-03-22T00:52:44.828Z,46.45
2018-03-22T00:55:13.048Z,46.29
2018-03-22T00:57:40.508Z,46.13
2018-03-22T01:00:07.927Z,47.25
2018-03-22T01:02:35.316Z,46.51
2018-03-22T01:05:02.775Z,46.42
2018-03-22T01:07:30.405Z,46.45
2018-03-22T01:09:58.229Z,46.33
2018-03-22T01:12:25.860Z,46.50
2018-03-22T01:14:53.458Z,46.80
2018-03-22T01:17:20.881Z,46.68
2018-03-22T01:19:48.868Z,46.53
2018-03-22T01:22:16.327Z,46.74
2018-03-22T01:24:44.058Z,47.27
2018-03-22T01:27:11.989Z,47.39
2018-03-22T01:29:39.405Z,47.40
2018-03-22T01:32:06.829Z,47.22
2018-03-22T01:34:34.294Z,47.44
2018-03-22T01:37:02.000Z,47.50
2018-03-22T01:39:29.455Z,47.86
2018-03-22T01:41:56.932Z,47.98
2018-03-22T01:44:24.336Z,47.82
2018-03-22T01:46:51.728Z,47.84
2018-03-22T01:49:19.196Z,47.60
2018-03-22T01:51:46.901Z,48.00
2018-03-22T01:54:14.402Z,47.92
2018-03-22T01:56:42.590Z,47.96
2018-03-22T01:59:10.750Z,48.40
2018-03-22T02:01:38.170Z,48.27
2018-03-22T02:04:05.552Z,48.38
2018-03-22T02:06:32.992Z,47.98
2018-03-22T02:09:00.695Z,48.21
2018-03-22T02:11:28.117Z,48.25
2018-03-22T02:13:55.575Z,48.44
2018-03-22T02:16:23.005Z,48.50
2018-03-22T02:18:50.467Z,48.64
2018-03-22T02:21:17.935Z,48.62
2018-03-22T02:23:45.406Z,48.65
2018-03-22T02:26:12.858Z,48.72
2018-03-22T02:28:40.285Z,48.78
2018-03-22T02:31:08.445Z,48.46
2018-03-22T02:33:35.841Z,48.19
2018-03-22T02:36:03.230Z,48.55
2018-03-22T02:38:30.629Z,48.81
2018-03-22T02:40:58.009Z,49.25
2018-03-22T02:43:25.418Z,49.08
2018-03-22T02:45:52.920Z,49.37
2018-03-22T02:48:20.347Z,49.55
2018-03-22T02:50:47.781Z,49.51
2018-03-22T02:53:15.173Z,49.38
2018-03-22T02:55:42.587Z,49.54
2018-03-22T02:58:09.982Z,49.42
2018-03-22T03:00:37.435Z,49.44
2018-03-22T03:03:04.828Z,49.58
2018-03-22T03:05:32.332Z,49.83
2018-03-22T03:07:59.742Z,50.09
2018-03-22T03:10:27.173Z,50.30
2018-03-22T03:12:54.628Z,50.43
2018-03-22T03:15:22.059Z,50.61
2018-03-22T03:17:49.451Z,50.74
2018-03-22T03:20:17.028Z,50.69
2018-03-22T03:22:44.709Z,50.63
2018-03-22T03:25:12.174Z,50.73
2018-03-22T03:27:40.031Z,50.94
2018-03-22T03:30:07.476Z,50.62
2018-03-22T03:32:34.899Z,50.52
2018-03-22T03:35:02.313Z,50.33
2018-03-22T03:37:29.774Z,50.51
2018-03-22T03:39:57.185Z,50.79
2018-03-22T03:42:24.621Z,50.42
2018-03-22T03:44:52.210Z,50.54
2018-03-22T03:47:19.714Z,50.50
2018-03-22T03:49:47.171Z,50.55
2018-03-22T03:52:14.744Z,50.49
2018-03-22T03:54:42.211Z,50.78
2018-03-22T03:57:09.886Z,50.68
2018-03-22T03:59:37.319Z,50.96
2018-03-22T04:02:04.737Z,50.82
2018-03-22T04:04:32.255Z,50.95
2018-03-22T04:06:59.711Z,50.95
2018-03-22T04:09:27.105Z,51.76
2018-03-22T04:11:55.275Z,51.49
2018-03-22T04:14:22.697Z,51.35
2018-03-22T04:16:50.117Z,51.75
2018-03-22T04:19:17.546Z,51.39
2018-03-22T04:21:45.025Z,51.44
2018-03-22T04:24:12.485Z,51.31
2018-03-22T04:26:39.925Z,51.34
2018-03-22T04:29:07.373Z,51.33
2018-03-22T04:31:34.793Z,51.57
2018-03-22T04:34:02.991Z,51.55
2018-03-22T04:36:30.413Z,51.52
2018-03-22T04:38:57.885Z,51.46
2018-03-22T04:41:25.321Z,51.69
2018-03-22T04:43:52.746Z,51.94
2018-03-22T04:46:20.856Z,51.68
2018-03-22T04:48:48.725Z,51.64
2018-03-22T04:51:16.211Z,51.51
2018-03-22T04:53:43.619Z,51.64
2018-03-22T04:56:11.120Z,51.79
2018-03-22T04:58:38.517Z,51.71
2018-03-22T05:01:05.916Z,51.88
2018-03-22T05:03:33.341Z,52.20
2018-03-22T05:06:00.808Z,52.31
2018-03-22T05:08:28.376Z,52.14
2018-03-22T05:10:55.804Z,52.08
2018-03-22T05:13:23.493Z,52.20
2018-03-22T05:15:50.925Z,52.43
2018-03-22T05:18:18.424Z,52.34
2018-03-22T05:20:45.810Z,52.38
2018-03-22T05:23:13.274Z,52.60
2018-03-22T05:25:40.882Z,52.56
2018-03-22T05:28:08.334Z,53.56
2018-03-22T05:30:35.904Z,53.09
2018-03-22T05:33:03.334Z,53.00
2018-03-22T05:35:30.787Z,52.96
2018-03-22T05:37:58.188Z,52.40
2018-03-22T05:40:25.593Z,52.59
2018-03-22T05:42:53.049Z,52.58
2018-03-22T05:45:20.468Z,52.71
2018-03-22T05:47:47.931Z,52.68
2018-03-22T05:50:15.321Z,52.67
2018-03-22T05:52:42.711Z,52.64
2018-03-22T05:55:10.155Z,53.27
2018-03-22T05:57:37.570Z,53.96
2018-03-22T06:00:05.071Z,53.08
2018-03-22T06:02:32.522Z,52.70
2018-03-22T06:05:00.292Z,51.30
2018-03-22T06:07:27.705Z,50.36
2018-03-22T06:09:55.194Z,50.18
2018-03-22T06:12:22.588Z,50.49
2018-03-22T06:14:50.018Z,49.85
2018-03-22T06:17:17.749Z,49.37
2018-03-22T06:19:45.190Z,48.93
2018-03-22T06:22:12.574Z,48.16
2018-03-22T06:24:39.965Z,47.20
2018-03-22T06:27:07.418Z,46.74
2018-03-22T06:29:34.844Z,47.22
2018-03-22T06:32:02.290Z,46.52
2018-03-22T06:34:29.810Z,45.79
2018-03-22T06:36:57.347Z,45.43
2018-03-22T06:39:25.009Z,44.82
2018-03-22T06:41:52.441Z,43.78
2018-03-22T06:44:19.888Z,44.36
2018-03-22T06:46:47.476Z,43.49
2018-03-22T06:49:14.909Z,42.74
2018-03-22T06:51:43.648Z,42.93
2018-03-22T06:54:11.092Z,42.66
2018-03-22T06:56:38.543Z,41.98
2018-03-22T06:59:06.076Z,41.37
2018-03-22T07:01:33.441Z,41.16
2018-03-22T07:04:00.874Z,41.79
2018-03-22T07:06:28.295Z,41.17
2018-03-22T07:08:55.817Z,40.94
2018-03-22T07:11:23.207Z,40.75
2018-03-22T07:13:50.707Z,40.34
2018-03-22T07:16:18.242Z,40.56
2018-03-22T07:18:45.662Z,40.22
2018-03-22T07:21:14.321Z,39.57
2018-03-22T07:23:42.710Z,38.49
2018-03-22T07:26:10.178Z,38.14
2018-03-22T07:28:38.022Z,37.85
2018-03-22T07:31:05.525Z,36.71
2018-03-22T07:33:32.988Z,36.53
2018-03-22T07:36:00.456Z,35.66
2018-03-22T07:38:27.843Z,35.59
2018-03-22T07:40:55.250Z,35.15
2018-03-22T07:43:40.562Z,35.16
2018-03-22T07:46:08.086Z,34.56
2018-03-22T07:48:35.527Z,34.62
2018-03-22T07:51:03.010Z,33.53
2018-03-22T07:53:30.563Z,34.10
2018-03-22T07:55:57.960Z,33.91
2018-03-22T07:58:25.429Z,34.18
2018-03-22T08:00:52.858Z,33.41
2018-03-22T08:03:20.286Z,32.14
2018-03-22T08:05:47.767Z,31.79
2018-03-22T08:08:15.198Z,31.00
2018-03-22T08:10:42.628Z,31.46
2018-03-22T08:13:10.037Z,31.57
2018-03-22T08:15:37.542Z,31.11
2018-03-22T08:18:05.503Z,31.21
2018-03-22T08:20:32.991Z,31.07
2018-03-22T08:23:00.389Z,30.36
2018-03-22T08:25:27.864Z,29.91
2018-03-22T08:27:55.297Z,29.45
2018-03-22T08:30:22.722Z,29.62
2018-03-22T08:32:50.170Z,29.34
2018-03-22T08:35:17.609Z,29.28
2018-03-22T08:37:45.033Z,29.38
2018-03-22T08:40:12.443Z,28.49
2018-03-22T08:42:39.919Z,27.34
2018-03-22T08:45:07.380Z,29.70
2018-03-22T08:47:34.909Z,27.81
2018-03-22T08:50:02.381Z,26.98
2018-03-22T08:52:29.825Z,26.58
2018-03-22T08:54:57.275Z,26.25
2018-03-22T08:57:24.668Z,25.75
2018-03-22T08:59:52.233Z,25.46
2018-03-22T09:02:19.641Z,24.97
2018-03-22T09:04:47.209Z,24.73
2018-03-22T09:07:14.766Z,25.49
2018-03-22T09:09:42.230Z,25.43
2018-03-22T09:12:09.680Z,25.26
2018-03-22T09:14:37.146Z,25.15
2018-03-22T09:17:04.536Z,25.47
2018-03-22T09:19:31.943Z,25.94
2018-03-22T09:21:59.377Z,26.04
2018-03-22T09:24:26.914Z,27.84
2018-03-22T09:27:00.043Z,28.90
2018-03-22T09:29:27.666Z,29.13
2018-03-22T09:31:55.129Z,29.13
2018-03-22T09:34:22.745Z,28.84
2018-03-22T09:36:50.169Z,28.94
2018-03-22T09:39:17.646Z,29.62
2018-03-22T09:41:45.316Z,29.72
2018-03-22T09:44:12.786Z,31.13
2018-03-22T09:46:40.220Z,30.66
2018-03-22T09:49:07.886Z,31.08
2018-03-22T09:51:35.349Z,31.56
2018-03-22T09:54:02.851Z,30.89
2018-03-22T09:56:30.276Z,30.96
2018-03-22T09:58:57.718Z,31.29
2018-03-22T10:01:25.179Z,29.39
2018-03-22T10:03:52.572Z,29.03
2018-03-22T10:06:20.092Z,28.25
2018-03-22T10:08:47.525Z,27.62
2018-03-22T10:11:14.928Z,27.44
2018-03-22T10:13:43.289Z,27.43
2018-03-22T10:16:10.901Z,27.71
2018-03-22T10:18:38.386Z,27.15
2018-03-22T10:21:05.813Z,27.34
2018-03-22T10:23:33.233Z,27.06
2018-03-22T10:26:00.626Z,26.78
2018-03-22T10:28:28.089Z,26.69
2018-03-22T10:30:55.748Z,25.83
2018-03-22T10:33:23.221Z,25.88
2018-03-22T10:35:50.710Z,26.13
2018-03-22T10:38:18.825Z,27.41
2018-03-22T10:40:46.301Z,27.12
2018-03-22T10:43:13.793Z,26.90
2018-03-22T10:45:41.256Z,26.56
2018-03-22T10:48:08.681Z,26.63
2018-03-22T10:50:36.432Z,26.72
2018-03-22T10:53:03.904Z,26.28
2018-03-22T10:55:31.508Z,26.57
2018-03-22T10:57:59.067Z,26.55
2018-03-22T11:00:32.013Z,25.88
2018-03-22T11:03:05.103Z,26.02
2018-03-22T11:05:32.533Z,25.92
2018-03-22T11:08:00.023Z,25.33
2018-03-22T11:10:27.513Z,24.85
2018-03-22T11:12:55.149Z,24.91
2018-03-22T11:15:22.685Z,24.89
2018-03-22T11:17:50.172Z,24.64
2018-03-22T11:20:17.644Z,25.18
2018-03-22T11:22:45.048Z,25.12
2018-03-22T11:25:13.126Z,24.44
2018-03-22T11:27:40.590Z,24.75
2018-03-22T11:30:08.255Z,24.74
2018-03-22T11:32:35.673Z,25.24
2018-03-22T11:35:03.102Z,25.43
2018-03-22T11:37:30.642Z,25.33
2018-03-22T11:39:58.089Z,25.07
2018-03-22T11:42:25.644Z,24.74
2018-03-22T11:44:53.102Z,25.00
2018-03-22T11:47:20.570Z,24.23
2018-03-22T11:49:48.006Z,24.66
2018-03-22T11:52:15.517Z,24.33
2018-03-22T11:54:42.908Z,23.90
2018-03-22T11:57:10.427Z,23.98
2018-03-22T11:59:37.863Z,23.71
2018-03-22T12:02:05.284Z,23.74
2018-03-22T12:04:32.887Z,24.02
2018-03-22T12:07:00.355Z,23.89
2018-03-22T12:09:28.468Z,24.07
2018-03-22T12:11:55.886Z,24.09
2018-03-22T12:14:23.428Z,24.06
2018-03-22T12:16:50.970Z,23.86
2018-03-22T12:19:18.965Z,23.18
2018-03-22T12:21:46.458Z,23.58
2018-03-22T12:24:13.987Z,23.22
2018-03-22T12:26:41.635Z,23.42
2018-03-22T12:29:09.198Z,23.16
2018-03-22T12:31:36.685Z,22.49
2018-03-22T12:34:04.568Z,23.21
2018-03-22T12:36:32.005Z,23.20
2018-03-22T12:38:59.540Z,22.97
2018-03-22T12:41:27.745Z,22.85
2018-03-22T12:43:55.517Z,22.69
2018-03-22T12:46:22.947Z,22.38
2018-03-22T12:48:50.712Z,22.41
2018-03-22T12:51:18.217Z,22.73
2018-03-22T12:53:45.618Z,22.66
2018-03-22T12:56:13.080Z,22.35
2018-03-22T12:58:40.471Z,22.39
2018-03-22T13:01:08.441Z,21.99
2018-03-22T13:03:35.864Z,22.08
2018-03-22T13:06:03.328Z,21.61
2018-03-22T13:08:30.869Z,22.18
2018-03-22T13:10:58.356Z,22.08
2018-03-22T13:13:25.850Z,22.07
2018-03-22T13:15:53.354Z,22.13
2018-03-22T13:18:20.782Z,22.35
2018-03-22T13:20:48.176Z,22.45
2018-03-22T13:23:15.614Z,22.57
2018-03-22T13:25:43.363Z,22.98
2018-03-22T13:28:10.841Z,22.70
2018-03-22T13:30:38.427Z,23.19
2018-03-22T13:33:05.874Z,23.61
2018-03-22T13:35:33.271Z,23.11
2018-03-22T13:38:00.700Z,23.02
2018-03-22T13:40:28.131Z,22.99
2018-03-22T13:42:55.676Z,22.78
2018-03-22T13:45:23.156Z,22.69
2018-03-22T13:47:50.575Z,22.84
2018-03-22T13:50:18.593Z,23.08
2018-03-22T13:52:46.037Z,22.51
2018-03-22T13:55:13.509Z,22.26
2018-03-22T13:57:40.962Z,21.82
2018-03-22T14:00:08.434Z,21.33
2018-03-22T14:02:35.877Z,21.88
2018-03-22T14:05:03.406Z,22.17
2018-03-22T14:07:30.858Z,22.23
2018-03-22T14:09:58.320Z,22.37
2018-03-22T14:12:25.750Z,21.94
2018-03-22T14:14:53.224Z,21.49
2018-03-22T14:17:20.674Z,21.50
2018-03-22T14:19:48.362Z,21.50
2018-03-22T14:22:15.928Z,21.24
2018-03-22T14:24:43.356Z,21.26
2018-03-22T14:27:10.792Z,21.43
2018-03-22T14:29:38.719Z,22.15
2018-03-22T14:32:07.090Z,22.25
2018-03-22T14:34:34.650Z,22.43
2018-03-22T14:37:02.127Z,22.93
2018-03-22T14:39:29.591Z,22.94
2018-03-22T14:41:57.068Z,23.34
2018-03-22T14:44:24.613Z,23.22
2018-03-22T14:46:52.041Z,23.45
2018-03-22T14:49:19.468Z,23.50
2018-03-22T14:51:46.953Z,23.58
2018-03-22T14:54:14.365Z,23.86
2018-03-22T14:56:41.824Z,23.27
2018-03-22T14:59:09.438Z,23.55
2018-03-22T15:01:36.921Z,23.49
2018-03-22T15:04:04.367Z,23.41
2018-03-22T15:06:31.825Z,23.02
2018-03-22T15:08:59.252Z,23.20
2018-03-22T15:11:26.722Z,23.85
2018-03-22T15:13:54.208Z,24.28
2018-03-22T15:16:21.686Z,25.17
2018-03-22T15:18:49.387Z,25.16
2018-03-22T15:21:16.841Z,24.86
2018-03-22T15:23:44.328Z,25.25
2018-03-22T15:26:12.774Z,25.49
2018-03-22T15:28:40.243Z,25.96
2018-03-22T15:31:07.808Z,26.10
2018-03-22T15:33:35.364Z,26.17
2018-03-22T15:36:02.840Z,26.52
2018-03-22T15:38:30.257Z,25.99
2018-03-22T15:40:57.786Z,26.17
2018-03-22T15:43:25.284Z,26.76
2018-03-22T15:45:52.766Z,27.26
2018-03-22T15:48:20.806Z,27.14
2018-03-22T15:50:48.271Z,27.18
2018-03-22T15:53:15.679Z,27.26
2018-03-22T15:55:43.173Z,27.24
2018-03-22T15:58:10.719Z,26.34
2018-03-22T16:00:38.173Z,26.84
2018-03-22T16:03:05.604Z,26.94
2018-03-22T16:05:33.035Z,26.80
2018-03-22T16:08:01.496Z,27.02
2018-03-22T16:10:29.182Z,27.49
2018-03-22T16:12:56.651Z,27.17
2018-03-22T16:15:24.333Z,26.93
2018-03-22T16:17:51.850Z,26.66
2018-03-22T16:20:19.262Z,26.88
2018-03-22T16:22:46.659Z,26.93
2018-03-22T16:25:14.099Z,27.39
2018-03-22T16:27:42.165Z,27.98
2018-03-22T16:30:09.598Z,28.56
2018-03-22T16:32:37.034Z,29.41
2018-03-22T16:35:04.536Z,30.19
2018-03-22T16:37:32.038Z,30.54
2018-03-22T16:39:59.502Z,31.05
2018-03-22T16:42:26.937Z,31.75
2018-03-22T16:44:54.400Z,33.28
2018-03-22T16:47:21.842Z,34.56
2018-03-22T16:49:49.419Z,35.66
2018-03-22T16:52:17.028Z,36.34
2018-03-22T16:54:44.717Z,36.82
2018-03-22T16:57:12.265Z,37.50
2018-03-22T16:59:39.777Z,37.98
2018-03-22T17:02:07.152Z,38.74
2018-03-22T17:04:34.647Z,38.90
2018-03-22T17:07:02.179Z,38.97
2018-03-22T17:09:29.877Z,39.27
2018-03-22T17:11:57.369Z,39.61
2018-03-22T17:14:24.822Z,39.90
2018-03-22T17:16:52.241Z,39.98
2018-03-22T17:19:19.827Z,40.40
2018-03-22T17:21:47.338Z,40.70
2018-03-22T17:24:14.760Z,41.35
2018-03-22T17:26:42.190Z,42.13
2018-03-22T17:29:09.657Z,42.10
2018-03-22T17:31:37.086Z,42.11
2018-03-22T17:34:04.560Z,42.44
2018-03-22T17:36:32.005Z,42.54
2018-03-22T17:38:59.482Z,42.73
2018-03-22T17:41:27.018Z,42.89
2018-03-22T17:43:54.451Z,43.37
2018-03-22T17:46:21.863Z,43.94
2018-03-22T17:48:49.371Z,44.12
2018-03-22T17:51:16.798Z,44.65
2018-03-22T17:53:44.263Z,44.67
2018-03-22T17:56:11.801Z,44.91
2018-03-22T17:58:39.247Z,45.15
2018-03-22T18:01:06.631Z,45.50
2018-03-22T18:03:34.098Z,45.71
2018-03-22T18:06:01.617Z,46.29
2018-03-22T18:08:29.125Z,46.54
2018-03-22T18:10:56.588Z,46.84
2018-03-22T18:13:24.087Z,47.02
2018-03-22T18:15:51.636Z,46.81
2018-03-22T18:18:19.222Z,46.97
2018-03-22T18:20:46.760Z,47.32
2018-03-22T18:23:14.364Z,47.65
2018-03-22T18:25:41.970Z,48.22
2018-03-22T18:28:09.447Z,48.51
2018-03-22T18:30:36.928Z,48.58
2018-03-22T18:33:04.349Z,48.41
2018-03-22T18:35:31.817Z,48.10
2018-03-22T18:37:59.200Z,47.71
2018-03-22T18:40:27.027Z,47.65
2018-03-22T18:42:54.703Z,47.24
2018-03-22T18:45:22.217Z,46.81
2018-03-22T18:47:49.731Z,46.54
2018-03-22T18:50:17.230Z,46.23
2018-03-22T18:52:44.758Z,46.17
2018-03-22T18:55:12.358Z,46.20
2018-03-22T18:57:40.165Z,46.17
2018-03-22T19:00:07.564Z,46.24
2018-03-22T19:02:35.005Z,46.20
2018-03-22T19:05:02.598Z,46.67
2018-03-22T19:07:30.042Z,47.19
2018-03-22T19:09:57.481Z,47.64
2018-03-22T19:12:25.119Z,48.21
2018-03-22T19:14:53.276Z,48.41
2018-03-22T19:17:20.714Z,48.55
2018-03-22T19:19:48.302Z,49.05
2018-03-22T19:22:15.713Z,49.46
2018-03-22T19:24:43.219Z,49.39
2018-03-22T19:27:10.658Z,49.85
2018-03-22T19:29:38.109Z,50.18
2018-03-22T19:32:05.580Z,50.63
2018-03-22T19:34:32.972Z,51.12
2018-03-22T19:37:00.380Z,51.50
2018-03-22T19:39:27.818Z,51.67
2018-03-22T19:41:56.270Z,51.66
2018-03-22T19:44:23.683Z,51.56
2018-03-22T19:46:51.125Z,51.70
2018-03-22T19:49:18.554Z,51.59
2018-03-22T19:51:45.988Z,51.61
2018-03-22T19:54:13.405Z,51.53
2018-03-22T19:56:40.808Z,51.58
2018-03-22T19:59:08.237Z,51.59
2018-03-22T20:01:35.676Z,51.13
2018-03-22T20:04:03.102Z,51.09
2018-03-22T20:06:30.517Z,50.77
2018-03-22T20:08:58.170Z,50.69
2018-03-22T20:11:25.625Z,50.62
2018-03-22T20:13:53.988Z,50.60
2018-03-22T20:16:21.382Z,50.52
2018-03-22T20:18:48.901Z,50.46
2018-03-22T20:21:16.311Z,50.38
2018-03-22T20:23:43.793Z,50.51
2018-03-22T20:26:11.255Z,50.33
2018-03-22T20:28:38.616Z,50.17
2018-03-22T20:31:06.004Z,50.01
2018-03-22T20:33:33.482Z,49.87
2018-03-22T20:36:00.872Z,50.03
2018-03-22T20:38:28.326Z,49.86
2018-03-22T20:40:55.723Z,49.78
2018-03-22T20:43:23.189Z,49.71
2018-03-22T20:45:50.738Z,49.73
2018-03-22T20:48:18.174Z,49.80
2018-03-22T20:50:45.649Z,49.40
2018-03-22T20:53:13.128Z,49.21
2018-03-22T20:55:40.568Z,49.19
2018-03-22T20:58:08.045Z,49.10
2018-03-22T21:00:35.515Z,49.25
2018-03-22T21:03:02.908Z,48.89
2018-03-22T21:05:30.378Z,48.92
2018-03-22T21:07:57.867Z,49.34
2018-03-22T21:10:25.303Z,49.71
2018-03-22T21:12:52.775Z,49.43
2018-03-22T21:15:20.167Z,49.31
2018-03-22T21:17:47.587Z,49.18
2018-03-22T21:20:15.438Z,49.14
2018-03-22T21:22:43.068Z,49.12
2018-03-22T21:25:10.453Z,50.07
2018-03-22T21:27:38.056Z,50.11
2018-03-22T21:30:05.517Z,50.33
2018-03-22T21:32:33.077Z,50.79
2018-03-22T21:35:00.542Z,50.64
2018-03-22T21:37:28.011Z,50.88
2018-03-22T21:39:55.477Z,51.19
2018-03-22T21:42:22.930Z,51.45
2018-03-22T21:44:50.379Z,51.98
2018-03-22T21:47:29.521Z,52.12
2018-03-22T21:49:56.993Z,52.55
2018-03-22T21:52:36.266Z,53.20
2018-03-22T21:55:03.739Z,53.55
2018-03-22T21:57:31.162Z,53.60
2018-03-22T21:59:58.613Z,53.86
2018-03-22T22:02:26.718Z,53.85
2018-03-22T22:04:54.187Z,53.81
2018-03-22T22:07:21.671Z,53.79
2018-03-22T22:09:49.088Z,53.73
2018-03-22T22:12:16.524Z,54.00
2018-03-22T22:14:43.914Z,54.51
2018-03-22T22:17:11.542Z,54.67
2018-03-22T22:19:39.047Z,54.42
2018-03-22T22:22:06.500Z,54.45
2018-03-22T22:24:34.073Z,54.69
2018-03-22T22:27:01.842Z,55.27
2018-03-22T22:29:29.318Z,55.18
2018-03-22T22:31:56.792Z,54.68
2018-03-22T22:36:57.893Z,54.95
2018-03-22T22:39:25.322Z,55.30
2018-03-22T22:41:52.752Z,55.23
2018-03-22T22:44:20.140Z,55.39
2018-03-22T22:46:47.713Z,55.75
2018-03-22T22:49:15.167Z,56.37
2018-03-22T22:51:42.571Z,56.30
2018-03-22T22:54:10.048Z,57.97
2018-03-22T22:56:37.525Z,59.02
2018-03-22T22:59:05.845Z,59.72
2018-03-22T23:01:33.286Z,60.03
2018-03-22T23:04:00.719Z,60.24
2018-03-22T23:06:28.167Z,60.43
2018-03-22T23:08:55.713Z,60.78
2018-03-22T23:11:23.144Z,60.38
2018-03-22T23:13:50.565Z,60.60
2018-03-22T23:16:17.952Z,60.93
2018-03-22T23:18:45.447Z,61.07
2018-03-22T23:21:13.013Z,61.16
2018-03-22T23:23:40.567Z,61.34
2018-03-22T23:26:07.958Z,61.26
2018-03-22T23:28:35.462Z,61.21
2018-03-22T23:31:02.885Z,61.58
2018-03-22T23:33:30.363Z,61.86
2018-03-22T23:35:57.777Z,61.98
2018-03-22T23:38:25.219Z,61.74
2018-03-22T23:40:52.648Z,61.64
2018-03-22T23:43:20.068Z,61.90
2018-03-22T23:45:47.628Z,61.84
2018-03-22T23:48:15.041Z,61.67
2018-03-22T23:50:42.568Z,61.06
2018-03-22T23:53:09.989Z,60.78
2018-03-22T23:55:37.691Z,60.85
2018-03-22T23:58:05.079Z,60.87
